DIVISION OF AGRICULTURAL PHYSICS
INDIAN AGRICULTURAL RESEARCH INSTITUTE
NEW DELHI, INDIA-110012
Phone No. 011-25843014

(IARI: Latitude: 280 38'23"N, Longitude:770 09'27"E., Altitude: 228.61m above msl.)
Duration of data : Last 60 days
Date Max.
Temp.
(oC)
Min.
Temp.
(oC)
Rainfall
(mm)
Wind
Speed
(Kmph)
Wind
Direction-I
Wind
Direction-II
Weather
condition-I
(Code 0-9)
Weather
condition-II
(Code 0-9)
RH-I
(%)
RH-II
(%)
BSS
(hrs)
Evaporation
(mm)
2017-09-21 37.2 21.6 0.00 2.4 E S 1 1 86.0 60.0 9.0 5.5
2017-09-22 33.7 24.9 0.00 4.5 E NE 1 6 80.0 98.0 1.6 3.7
2017-09-23 27.3 22.1 138.60 6.7 NE NNE 6 6 93.0 98.0 0.0 4.0
2017-09-24 25.3 21.4 0.00 6.8 NW N 2 0 98.0 71.0 0.0 4.0
2017-09-25 30.4 22.6 0.00 3.8 N N 0 0 93.0 59.0 5.8 4.3
2017-09-26 26.2 25.8 0.00 3.3 C N 0 0 97.0 52.0 9.1 3.6
2017-09-27 33.9 21.6 0.00 11.3 C N 0 0 96.0 47.0 8.3 4.0
2017-09-28 35.0 21.8 0.00 1.5 C W 0 1 90.0 49.0 9.6 3.2
2017-09-29 35.4 22.2 0.00 1.2 C NW 1 0 95.0 49.0 9.0 4.0
2017-09-30 34.8 21.0 0.00 2.3 C NW 0 0 84.0 37.0 9.0 4.4
2017-10-01 35.6 19.5 0.00 3.4 C W 0 0 93.0 37.0 9.5 5.0
2017-10-02 35.5 19.4 0.00 3.5 C W 0 0 86.0 34.0 9.5 5.5
2017-10-03 35.6 18.8 0.00 4.5 C NW 0 0 90.0 46.0 9.2 6.0
2017-10-04 34.8 19.8 0.00 3.0 C N 0 0 91.0 40.0 8.9 5.8
2017-10-05 35.4 21.0 0.00 3.1 C N 0 0 84.0 42.0 9.0 4.7
2017-10-06 35.5 20.6 0.00 4.1 C NW 0 0 82.0 40.0 8.9 6.0
2017-10-07 35.0 18.4 0.00 3.6 E NW 0 0 96.0 46.0 9.6 4.8
2017-10-08 34.0 19.6 0.00 2.8 C N 1 0 94.0 46.0 8.4 3.9
2017-10-09 34.0 19.4 0.00 1.8 C N 1 0 96.0 46.0 7.4 4.6
2017-10-10 34.5 19.5 0.00 1.6 C N 1 0 91.0 44.0 8.1 3.6
2017-10-11 34.0 20.0 0.00 1.4 C C 0 0 94.0 44.0 9.5 3.4
2017-10-12 34.0 19.6 0.00 2.1 C W 1 1 93.0 44.0 6.3 3.5
2017-10-13 34.3 19.2 0.00 1.8 C NW 1 0 93.0 38.0 2.2 3.4
2017-10-14 35.0 17.6 0.00 2.6 C N 0 0 94.0 40.0 5.9 3.8
2017-10-15 35.5 16.2 0.00 1.8 C NW 0 0 84.0 41.0 7.7 3.9
2017-10-16 35.8 15.6 0.00 2.3 C N 0 0 94.0 38.0 8.0 3.9
2017-10-17 34.8 16.0 0.00 1.6 C NW 1 0 92.0 41.0 7.1 3.4
2017-10-18 34.0 16.6 0.00 2.8 C NW 1 0 96.0 42.0 8.0 3.6
2017-10-19 34.4 16.8 0.00 2.9 C W 0 0 94.0 40.0 7.0 3.8
2017-10-20 35.2 17.4 0.00 1.9 C N 4 1 94.0 43.0 7.5 3.7
2017-10-21 34.6 15.9 0.00 1.4 C NW 4 0 98.0 43.0 2.8 4.1
2017-10-22 34.6 15.2 0.00 3.0 C C 0 0 90.0 36.0 4.2 3.7
2017-10-23 34.6 15.7 0.00 2.3 C W 0 0 91.0 41.0 6.0 3.4
2017-10-24 34.2 14.6 0.00 1.4 C NW 1 0 90.0 35.0 5.0 2.8
2017-10-25 32.8 14.0 0.00 2.7 S NW 1 0 86.0 44.0 5.0 3.4
2017-10-26 31.5 13.8 0.00 1.8 C SE 1 1 93.0 44.0 3.8 3.0
2017-10-27 32.2 16.0 0.00 2.1 C N 1 0 96.0 51.0 4.1 2.8
2017-10-28 30.6 14.2 0.00 1.8 C NE 1 1 96.0 45.0 0.0 3.0
2017-10-29 31.2 14.8 0.00 1.5 C NE 1 1 96.0 47.0 2.8 2.6
2017-10-30 30.2 14.5 0.00 1.5 C NW 1 1 92.0 54.0 1.7 3.0
2017-10-31 29.8 14.5 0.00 1.0 C NW 1 0 98.0 44.0 0.0 3.0
2017-11-01 29.2 16.0 0.00 1.2 C SE 1 1 90.0 54.0 0.0 2.8
2017-11-02 30.0 15.8 0.00 2.0 C SE 1 1 92.0 60.0 3.6 2.8
2017-11-03 29.0 14.8 0.00 2.1 C E 1 1 96.0 53.0 0.0 2.9
2017-11-04 29.2 15.4 0.00 1.8 C SE 4 1 94.0 60.0 0.0 2.3
2017-11-05 29.0 14.2 0.00 1.7 C N 4 1 93.0 51.0 0.0 2.4
2017-11-06 29.2 14.6 0.00 0.9 C W 4 1 96.0 59.0 0.6 2.2
2017-11-07 29.6 13.9 0.00 1.7 C NW 4 1 96.0 46.0 0.0 2.0
2017-11-08 29.0 11.5 0.00 1.4 C W 4 4 98.0 64.0 0.0 2.4
2017-11-09 26.0 10.8 0.00 0.8 C NW 4 1 95.0 41.0 0.0 2.0
2017-11-10 29.4 12.4 0.00 1.1 C N 4 1 93.0 49.0 0.5 2.0
2017-11-11 28.1 10.8 0.00 1.2 C NW 4 1 95.0 51.0 0.0 2.0
2017-11-12 27.0 11.0 0.00 0.3 C N 4 4 93.0 50.0 0.0 1.9
2017-11-13 28.0 10.4 0.00 0.9 C S 4 3 97.0 52.0 0.0 1.8
2017-11-14 27.0 10.4 0.00 2.1 S S 4 2 88.0 54.0 0.0 1.7
2017-11-15 26.2 12.6 0.00 3.7 C S 4 0 89.0 51.0 0.0 1.9
2017-11-16 26.2 12.0 0.00 2.5 C N 4 3 93.0 57.0 0.0 1.7
2017-11-17 25.0 12.0 0.00 3.5 W N 4 0 87.0 54.0 0.0 1.6
2017-11-18 25.4 13.7 0.00 4.4 NW 1 0 98.0 0.0 1.4 2.0

Abbrevations used:
I - Observations taken at 7.21 hrs. and II - Observations taken at 14:21 hrs.
Codes:
0 - Fair (clear and slightly clouded), 1 - Variable Sky, 2 - Mainly Overcast, 3 - Sand Storm or Dust Storm,4 - Fog or Thick Dust Haze, 5 - Drizzle, 6 - Rain,7 - Snow or Sleet, 8 - Shower (s), 9 - Thunder Storm with or without Precipitation